EIN1HL EGCC-LEMD
Flight info
| Callsign | EIN1HL |
|---|---|
| Flight time | 2h 6m |
| Altitude | 37000 |
| Route | ASMIM DCT NOKIN P17 BEPHE/N0485F400 DCT OSSEP DCT ELNIF DCT ZESPE DCT DAWLY DCT BHD DCT SALCO/N0489F410 DCT GOPIN DCT DELOG N864 NONTU |
| Aircraft | A333/H-SDE2E3GHIJ3J4J5LM1ORWXY/LB1D1 |
Departure
| Time | 2026-05-05 20:16 |
|---|---|
| Airport | Manchester Airport (EGCC) |
Arrival
| Time | 2026-05-05 22:23 |
|---|---|
| Airport | Adolfo Suárez Madrid–Barajas Airport (LEMD) |
| Time | Latitude | Longitude | Altitude | Speed | Heading |
|---|---|---|---|---|---|
| 2026-05-05 18:58 | 53.36370 | -2.28164 | 261 ft | 0 kts | 45° |
| 2026-05-05 19:58 | 53.36362 | -2.28177 | 261 ft | 4 kts | 44° |
| 2026-05-05 19:58 | 53.36347 | -2.28202 | 261 ft | 4 kts | 47° |
| 2026-05-05 19:58 | 53.36331 | -2.28237 | 261 ft | 4 kts | 65° |
| 2026-05-05 19:59 | 53.36325 | -2.28277 | 261 ft | 4 kts | 109° |
| 2026-05-05 19:59 | 53.36326 | -2.28286 | 261 ft | 4 kts | 134° |
| 2026-05-05 19:59 | 53.36307 | -2.28254 | 262 ft | 3 kts | 134° |
| 2026-05-05 19:59 | 53.36298 | -2.28238 | 261 ft | 0 kts | 134° |
| 2026-05-05 20:01 | 53.36296 | -2.28232 | 261 ft | 1 kts | 120° |
| 2026-05-05 20:02 | 53.36294 | -2.28222 | 261 ft | 0 kts | 115° |
| 2026-05-05 20:05 | 53.36292 | -2.28215 | 261 ft | 5 kts | 117° |
| 2026-05-05 20:06 | 53.36220 | -2.28074 | 261 ft | 21 kts | 135° |
| 2026-05-05 20:06 | 53.36102 | -2.27905 | 261 ft | 24 kts | 147° |
| 2026-05-05 20:06 | 53.35947 | -2.27845 | 261 ft | 24 kts | 181° |
| 2026-05-05 20:06 | 53.35781 | -2.27867 | 255 ft | 22 kts | 186° |
| 2026-05-05 20:07 | 53.35617 | -2.27934 | 246 ft | 27 kts | 217° |
| 2026-05-05 20:07 | 53.35474 | -2.28135 | 241 ft | 21 kts | 204° |
| 2026-05-05 20:07 | 53.35341 | -2.28186 | 240 ft | 21 kts | 195° |
| 2026-05-05 20:07 | 53.35210 | -2.28344 | 238 ft | 26 kts | 229° |
| 2026-05-05 20:08 | 53.35085 | -2.28601 | 238 ft | 28 kts | 233° |
| 2026-05-05 20:08 | 53.35016 | -2.28734 | 238 ft | 15 kts | 228° |
| 2026-05-05 20:08 | 53.34931 | -2.28888 | 234 ft | 21 kts | 226° |
| 2026-05-05 20:08 | 53.34834 | -2.29062 | 229 ft | 15 kts | 227° |
| 2026-05-05 20:09 | 53.34762 | -2.29195 | 229 ft | 15 kts | 229° |
| 2026-05-05 20:09 | 53.34748 | -2.29222 | 226 ft | 0 kts | 229° |
| 2026-05-05 20:09 | 53.34742 | -2.29235 | 228 ft | 5 kts | 229° |
| 2026-05-05 20:09 | 53.34734 | -2.29251 | 218 ft | 0 kts | 229° |
| 2026-05-05 20:12 | 53.34716 | -2.29283 | 227 ft | 7 kts | 225° |
| 2026-05-05 20:13 | 53.34667 | -2.29321 | 218 ft | 7 kts | 188° |
| 2026-05-05 20:13 | 53.34606 | -2.29331 | 221 ft | 10 kts | 179° |
| 2026-05-05 20:13 | 53.34554 | -2.29292 | 227 ft | 8 kts | 139° |
| 2026-05-05 20:13 | 53.34550 | -2.29220 | 220 ft | 6 kts | 73° |
| 2026-05-05 20:14 | 53.34579 | -2.29143 | 229 ft | 10 kts | 52° |
| 2026-05-05 20:14 | 53.34612 | -2.29074 | 220 ft | 0 kts | 51° |
| 2026-05-05 20:15 | 53.34621 | -2.29055 | 221 ft | 10 kts | 51° |
| 2026-05-05 20:15 | 53.34811 | -2.28657 | 241 ft | 86 kts | 51° |
| 2026-05-05 20:16 | 53.35353 | -2.27536 | 250 ft | 158 kts | 51° |
| 2026-05-05 20:16 | 53.36135 | -2.25939 | 675 ft | 190 kts | 50° |
| 2026-05-05 20:16 | 53.37067 | -2.24193 | 1414 ft | 214 kts | 46° |
| 2026-05-05 20:16 | 53.38144 | -2.22351 | 2391 ft | 224 kts | 46° |
| 2026-05-05 20:17 | 53.39209 | -2.20555 | 3881 ft | 213 kts | 43° |
| 2026-05-05 20:17 | 53.40447 | -2.19049 | 4715 ft | 233 kts | 26° |
| 2026-05-05 20:17 | 53.42137 | -2.18374 | 5049 ft | 270 kts | 359° |
| 2026-05-05 20:17 | 53.44033 | -2.19342 | 5214 ft | 315 kts | 330° |
| 2026-05-05 20:18 | 53.45680 | -2.22039 | 5283 ft | 342 kts | 304° |
| 2026-05-05 20:18 | 53.46504 | -2.25595 | 5168 ft | 322 kts | 280° |
| 2026-05-05 20:18 | 53.46564 | -2.29260 | 4885 ft | 306 kts | 271° |
| 2026-05-05 20:18 | 53.46507 | -2.32711 | 4835 ft | 284 kts | 271° |
| 2026-05-05 20:19 | 53.46431 | -2.35982 | 5099 ft | 277 kts | 270° |
| 2026-05-05 20:19 | 53.46304 | -2.39200 | 5385 ft | 282 kts | 268° |
| 2026-05-05 20:19 | 53.46130 | -2.42551 | 6075 ft | 293 kts | 267° |
| 2026-05-05 20:19 | 53.45928 | -2.45893 | 7415 ft | 287 kts | 266° |
| 2026-05-05 20:20 | 53.45714 | -2.49198 | 8887 ft | 285 kts | 265° |
| 2026-05-05 20:20 | 53.45492 | -2.52516 | 10169 ft | 288 kts | 265° |
| 2026-05-05 20:20 | 53.45263 | -2.55870 | 11416 ft | 290 kts | 264° |
| 2026-05-05 20:20 | 53.45031 | -2.59232 | 12686 ft | 291 kts | 264° |
| 2026-05-05 20:21 | 53.44689 | -2.62587 | 13836 ft | 296 kts | 254° |
| 2026-05-05 20:21 | 53.43616 | -2.65546 | 14902 ft | 303 kts | 225° |
| 2026-05-05 20:21 | 53.41815 | -2.67437 | 15973 ft | 310 kts | 207° |
| 2026-05-05 20:21 | 53.39798 | -2.68807 | 16998 ft | 316 kts | 202° |
| 2026-05-05 20:22 | 53.37707 | -2.70020 | 18010 ft | 320 kts | 201° |
| 2026-05-05 20:22 | 53.35580 | -2.71204 | 18979 ft | 324 kts | 201° |
| 2026-05-05 20:22 | 53.33430 | -2.72422 | 19906 ft | 329 kts | 201° |
| 2026-05-05 20:22 | 53.31281 | -2.73682 | 20792 ft | 333 kts | 202° |
| 2026-05-05 20:23 | 53.29092 | -2.75004 | 21687 ft | 337 kts | 202° |
| 2026-05-05 20:23 | 53.26878 | -2.76367 | 22541 ft | 341 kts | 203° |
| 2026-05-05 20:23 | 53.24635 | -2.77763 | 23398 ft | 345 kts | 203° |
| 2026-05-05 20:23 | 53.22374 | -2.79174 | 24198 ft | 350 kts | 203° |
| 2026-05-05 20:24 | 53.20080 | -2.80605 | 24982 ft | 354 kts | 203° |
| 2026-05-05 20:24 | 53.17766 | -2.82043 | 25788 ft | 356 kts | 202° |
| 2026-05-05 20:24 | 53.15446 | -2.83481 | 26655 ft | 356 kts | 202° |
| 2026-05-05 20:24 | 53.13147 | -2.84902 | 27406 ft | 359 kts | 202° |
| 2026-05-05 20:25 | 53.10776 | -2.86268 | 28082 ft | 363 kts | 198° |
| 2026-05-05 20:25 | 53.08287 | -2.87190 | 28752 ft | 369 kts | 191° |
| 2026-05-05 20:25 | 53.05715 | -2.87482 | 29394 ft | 374 kts | 181° |
| 2026-05-05 20:25 | 53.03097 | -2.87146 | 30014 ft | 379 kts | 175° |
| 2026-05-05 20:26 | 53.00476 | -2.86543 | 30593 ft | 383 kts | 173° |
| 2026-05-05 20:26 | 52.97835 | -2.85814 | 31168 ft | 387 kts | 172° |
| 2026-05-05 20:26 | 52.95165 | -2.85035 | 31699 ft | 391 kts | 172° |
| 2026-05-05 20:26 | 52.92477 | -2.84248 | 32215 ft | 394 kts | 172° |
| 2026-05-05 20:27 | 52.89762 | -2.83471 | 32688 ft | 398 kts | 172° |
| 2026-05-05 20:27 | 52.87023 | -2.82704 | 33177 ft | 401 kts | 172° |
| 2026-05-05 20:27 | 52.84290 | -2.81954 | 33642 ft | 405 kts | 172° |
| 2026-05-05 20:27 | 52.81500 | -2.81200 | 34027 ft | 410 kts | 172° |
| 2026-05-05 20:28 | 52.78651 | -2.80435 | 34270 ft | 419 kts | 172° |
| 2026-05-05 20:28 | 52.75744 | -2.79654 | 34481 ft | 428 kts | 172° |
| 2026-05-05 20:28 | 52.72769 | -2.78859 | 34687 ft | 437 kts | 172° |
| 2026-05-05 20:28 | 52.69737 | -2.78051 | 34888 ft | 446 kts | 172° |
| 2026-05-05 20:29 | 52.66641 | -2.77222 | 35078 ft | 455 kts | 172° |
| 2026-05-05 20:29 | 52.63497 | -2.76398 | 35298 ft | 462 kts | 173° |
| 2026-05-05 20:29 | 52.60262 | -2.76008 | 35501 ft | 468 kts | 181° |
| 2026-05-05 20:29 | 52.57034 | -2.76112 | 35764 ft | 473 kts | 183° |
| 2026-05-05 20:30 | 52.53700 | -2.76347 | 36154 ft | 475 kts | 184° |
| 2026-05-05 20:30 | 52.50437 | -2.76634 | 36545 ft | 476 kts | 184° |
| 2026-05-05 20:30 | 52.47130 | -2.76952 | 36899 ft | 478 kts | 184° |
| 2026-05-05 20:30 | 52.43825 | -2.77268 | 37012 ft | 472 kts | 184° |
| 2026-05-05 20:31 | 52.40558 | -2.77567 | 37018 ft | 467 kts | 184° |
| 2026-05-05 20:31 | 52.34082 | -2.78137 | 37018 ft | 466 kts | 184° |
| 2026-05-05 20:32 | 52.27614 | -2.78696 | 37018 ft | 466 kts | 184° |
| 2026-05-05 20:32 | 52.21176 | -2.79246 | 37012 ft | 466 kts | 184° |
| 2026-05-05 20:33 | 52.14703 | -2.79795 | 37009 ft | 466 kts | 184° |
| 2026-05-05 20:33 | 52.08224 | -2.80349 | 37009 ft | 466 kts | 184° |
| 2026-05-05 20:34 | 52.01754 | -2.80902 | 37009 ft | 466 kts | 184° |
| 2026-05-05 20:34 | 51.95284 | -2.81450 | 37015 ft | 464 kts | 184° |
| 2026-05-05 20:35 | 51.88934 | -2.81982 | 37007 ft | 458 kts | 184° |
| 2026-05-05 20:35 | 51.82589 | -2.82608 | 36999 ft | 456 kts | 186° |
| 2026-05-05 20:36 | 51.76294 | -2.83978 | 36999 ft | 456 kts | 189° |
| 2026-05-05 20:36 | 51.70018 | -2.85506 | 36999 ft | 457 kts | 189° |
| 2026-05-05 20:37 | 51.63725 | -2.86936 | 36999 ft | 457 kts | 188° |
| 2026-05-05 20:37 | 51.57463 | -2.88310 | 36996 ft | 457 kts | 189° |
| 2026-05-05 20:38 | 51.51361 | -2.91061 | 36999 ft | 456 kts | 199° |
| 2026-05-05 20:38 | 51.45392 | -2.94579 | 36999 ft | 457 kts | 201° |
| 2026-05-05 20:39 | 51.39482 | -2.98175 | 36999 ft | 458 kts | 201° |
| 2026-05-05 20:39 | 51.33524 | -3.01770 | 36999 ft | 458 kts | 201° |
| 2026-05-05 20:40 | 51.27549 | -3.05337 | 36999 ft | 458 kts | 200° |
| 2026-05-05 20:40 | 51.21572 | -3.08886 | 36999 ft | 459 kts | 200° |
| 2026-05-05 20:41 | 51.15583 | -3.12432 | 36999 ft | 459 kts | 200° |
| 2026-05-05 20:41 | 51.09601 | -3.15962 | 36999 ft | 459 kts | 200° |
| 2026-05-05 20:42 | 51.03606 | -3.19499 | 36994 ft | 467 kts | 200° |
| 2026-05-05 20:42 | 50.97490 | -3.23097 | 36990 ft | 470 kts | 200° |
| 2026-05-05 20:43 | 50.91347 | -3.26698 | 36990 ft | 470 kts | 200° |
| 2026-05-05 20:43 | 50.85206 | -3.30290 | 36990 ft | 471 kts | 200° |
| 2026-05-05 20:44 | 50.79054 | -3.33873 | 36989 ft | 471 kts | 200° |
| 2026-05-05 20:44 | 50.72937 | -3.37426 | 36990 ft | 471 kts | 200° |
| 2026-05-05 20:45 | 50.63710 | -3.42766 | 36990 ft | 471 kts | 200° |
| 2026-05-05 20:45 | 50.57530 | -3.46023 | 36990 ft | 472 kts | 193° |
| 2026-05-05 20:46 | 50.51040 | -3.47564 | 36989 ft | 472 kts | 187° |
| 2026-05-05 20:46 | 50.44506 | -3.48669 | 36998 ft | 472 kts | 186° |
| 2026-05-05 20:47 | 50.37968 | -3.49695 | 36998 ft | 473 kts | 185° |
| 2026-05-05 20:47 | 50.31393 | -3.50121 | 36999 ft | 473 kts | 181° |
| 2026-05-05 20:48 | 50.24860 | -3.50294 | 36990 ft | 473 kts | 181° |
| 2026-05-05 20:48 | 50.18289 | -3.50556 | 36989 ft | 473 kts | 182° |
| 2026-05-05 20:49 | 50.11716 | -3.50895 | 36989 ft | 473 kts | 182° |
| 2026-05-05 20:49 | 50.05140 | -3.51258 | 36990 ft | 473 kts | 182° |
| 2026-05-05 20:50 | 49.98614 | -3.51617 | 36989 ft | 473 kts | 182° |
| 2026-05-05 20:50 | 49.92034 | -3.51974 | 36990 ft | 474 kts | 182° |
| 2026-05-05 20:51 | 49.85444 | -3.52329 | 36990 ft | 474 kts | 182° |
| 2026-05-05 20:51 | 49.78847 | -3.52682 | 36989 ft | 474 kts | 182° |
| 2026-05-05 20:52 | 49.72258 | -3.53036 | 36989 ft | 474 kts | 182° |
| 2026-05-05 20:52 | 49.65716 | -3.53416 | 36997 ft | 473 kts | 182° |
| 2026-05-05 20:53 | 49.59134 | -3.53813 | 36999 ft | 473 kts | 182° |
| 2026-05-05 20:53 | 49.52552 | -3.54203 | 36999 ft | 473 kts | 182° |
| 2026-05-05 20:54 | 49.45970 | -3.54590 | 36999 ft | 474 kts | 182° |
| 2026-05-05 20:54 | 49.39429 | -3.54973 | 36993 ft | 474 kts | 182° |
| 2026-05-05 20:55 | 49.32840 | -3.55361 | 36990 ft | 474 kts | 182° |
| 2026-05-05 20:55 | 49.26246 | -3.55744 | 36989 ft | 474 kts | 182° |
| 2026-05-05 20:56 | 49.19659 | -3.56124 | 36989 ft | 474 kts | 182° |
| 2026-05-05 20:56 | 49.13068 | -3.56504 | 36990 ft | 474 kts | 182° |
| 2026-05-05 20:57 | 49.06515 | -3.56883 | 36990 ft | 474 kts | 182° |
| 2026-05-05 20:57 | 48.99923 | -3.57264 | 36989 ft | 474 kts | 182° |
| 2026-05-05 20:58 | 48.93328 | -3.57642 | 36989 ft | 474 kts | 182° |
| 2026-05-05 20:58 | 48.86730 | -3.58023 | 36990 ft | 475 kts | 182° |
| 2026-05-05 20:59 | 48.80129 | -3.58396 | 36990 ft | 475 kts | 182° |
| 2026-05-05 20:59 | 48.73574 | -3.58770 | 36990 ft | 475 kts | 182° |
| 2026-05-05 21:00 | 48.66972 | -3.59140 | 36988 ft | 472 kts | 181° |
| 2026-05-05 21:00 | 48.60515 | -3.59446 | 36991 ft | 462 kts | 181° |
| 2026-05-05 21:01 | 48.54043 | -3.59831 | 36990 ft | 464 kts | 182° |
| 2026-05-05 21:01 | 48.47619 | -3.60226 | 36993 ft | 465 kts | 182° |
| 2026-05-05 21:02 | 48.41104 | -3.60605 | 36990 ft | 465 kts | 181° |
| 2026-05-05 21:02 | 48.34683 | -3.60971 | 36990 ft | 465 kts | 181° |
| 2026-05-05 21:03 | 48.28227 | -3.61330 | 36990 ft | 465 kts | 181° |
| 2026-05-05 21:03 | 48.21757 | -3.61686 | 36989 ft | 465 kts | 181° |
| 2026-05-05 21:04 | 48.15287 | -3.62045 | 36990 ft | 465 kts | 181° |
| 2026-05-05 21:04 | 48.08861 | -3.62401 | 36986 ft | 465 kts | 181° |
| 2026-05-05 21:05 | 48.02388 | -3.62756 | 36979 ft | 466 kts | 181° |
| 2026-05-05 21:05 | 47.95908 | -3.63116 | 36982 ft | 466 kts | 181° |
| 2026-05-05 21:06 | 47.89434 | -3.63474 | 36971 ft | 466 kts | 181° |
| 2026-05-05 21:06 | 47.82956 | -3.63829 | 36971 ft | 466 kts | 181° |
| 2026-05-05 21:07 | 47.76475 | -3.64183 | 36971 ft | 466 kts | 181° |
| 2026-05-05 21:07 | 47.69995 | -3.64539 | 36971 ft | 466 kts | 181° |
| 2026-05-05 21:08 | 47.63516 | -3.64891 | 36971 ft | 466 kts | 181° |
| 2026-05-05 21:08 | 47.57075 | -3.65241 | 36971 ft | 466 kts | 181° |
| 2026-05-05 21:09 | 47.50601 | -3.65592 | 36971 ft | 466 kts | 181° |
| 2026-05-05 21:09 | 47.44115 | -3.65944 | 36971 ft | 466 kts | 181° |
| 2026-05-05 21:10 | 47.37642 | -3.66293 | 36971 ft | 466 kts | 181° |
| 2026-05-05 21:10 | 47.31208 | -3.66640 | 36972 ft | 467 kts | 181° |
| 2026-05-05 21:11 | 47.24636 | -3.66990 | 36972 ft | 476 kts | 181° |
| 2026-05-05 21:11 | 47.18046 | -3.67306 | 36969 ft | 467 kts | 180° |
| 2026-05-05 21:12 | 47.11676 | -3.67556 | 36968 ft | 448 kts | 181° |
| 2026-05-05 21:12 | 47.05573 | -3.67855 | 36967 ft | 429 kts | 181° |
| 2026-05-05 21:13 | 46.99778 | -3.68302 | 36967 ft | 411 kts | 184° |
| 2026-05-05 21:13 | 46.94203 | -3.69034 | 36967 ft | 393 kts | 185° |
| 2026-05-05 21:14 | 46.88874 | -3.69742 | 36966 ft | 376 kts | 184° |
| 2026-05-05 21:14 | 46.83763 | -3.70371 | 36974 ft | 367 kts | 185° |
| 2026-05-05 21:15 | 46.81179 | -3.70703 | 36977 ft | 379 kts | 185° |
| 2026-05-05 21:15 | 46.78509 | -3.71057 | 36976 ft | 392 kts | 185° |
| 2026-05-05 21:15 | 46.75748 | -3.71413 | 36978 ft | 405 kts | 185° |
| 2026-05-05 21:15 | 46.72939 | -3.71764 | 36975 ft | 417 kts | 185° |
| 2026-05-05 21:16 | 46.70000 | -3.72118 | 36975 ft | 430 kts | 185° |
| 2026-05-05 21:16 | 46.66977 | -3.72476 | 36975 ft | 442 kts | 185° |
| 2026-05-05 21:16 | 46.63862 | -3.72842 | 36976 ft | 455 kts | 185° |
| 2026-05-05 21:16 | 46.60663 | -3.73216 | 36975 ft | 467 kts | 185° |
| 2026-05-05 21:17 | 46.57389 | -3.73597 | 36974 ft | 478 kts | 185° |
| 2026-05-05 21:17 | 46.54055 | -3.73985 | 36975 ft | 482 kts | 185° |
| 2026-05-05 21:17 | 46.47356 | -3.74761 | 36973 ft | 483 kts | 185° |
| 2026-05-05 21:18 | 46.40660 | -3.75538 | 36971 ft | 483 kts | 185° |
| 2026-05-05 21:18 | 46.34007 | -3.76308 | 36971 ft | 483 kts | 185° |
| 2026-05-05 21:19 | 46.27306 | -3.77084 | 36971 ft | 483 kts | 185° |
| 2026-05-05 21:19 | 46.20595 | -3.77858 | 36971 ft | 484 kts | 185° |
| 2026-05-05 21:20 | 46.13887 | -3.78628 | 36977 ft | 484 kts | 185° |
| 2026-05-05 21:20 | 46.07220 | -3.79392 | 36999 ft | 484 kts | 185° |
| 2026-05-05 21:21 | 46.00512 | -3.80158 | 36999 ft | 484 kts | 185° |
| 2026-05-05 21:21 | 45.93803 | -3.80924 | 36999 ft | 484 kts | 185° |
| 2026-05-05 21:22 | 45.87086 | -3.81689 | 37003 ft | 484 kts | 185° |
| 2026-05-05 21:22 | 45.80380 | -3.82451 | 37008 ft | 484 kts | 185° |
| 2026-05-05 21:23 | 45.73713 | -3.83200 | 37008 ft | 484 kts | 185° |
| 2026-05-05 21:23 | 45.67001 | -3.83959 | 37017 ft | 484 kts | 185° |
| 2026-05-05 21:24 | 45.60296 | -3.84722 | 37017 ft | 484 kts | 185° |
| 2026-05-05 21:24 | 45.53587 | -3.85476 | 37017 ft | 483 kts | 185° |
| 2026-05-05 21:25 | 45.46889 | -3.86226 | 37017 ft | 483 kts | 185° |
| 2026-05-05 21:25 | 45.40236 | -3.86971 | 37026 ft | 482 kts | 185° |
| 2026-05-05 21:26 | 45.33544 | -3.87718 | 37026 ft | 482 kts | 185° |
| 2026-05-05 21:26 | 45.26860 | -3.88462 | 37026 ft | 482 kts | 185° |
| 2026-05-05 21:27 | 45.20177 | -3.89207 | 37027 ft | 482 kts | 185° |
| 2026-05-05 21:27 | 45.13546 | -3.89943 | 37032 ft | 481 kts | 185° |
| 2026-05-05 21:28 | 45.06870 | -3.90684 | 37033 ft | 481 kts | 185° |
| 2026-05-05 21:28 | 45.00202 | -3.91418 | 37043 ft | 481 kts | 186° |
| 2026-05-05 21:29 | 44.93538 | -3.92150 | 37039 ft | 480 kts | 186° |
| 2026-05-05 21:29 | 44.86920 | -3.92876 | 37039 ft | 480 kts | 186° |
| 2026-05-05 21:30 | 44.80258 | -3.93608 | 37033 ft | 480 kts | 186° |
| 2026-05-05 21:30 | 44.73601 | -3.94334 | 37046 ft | 480 kts | 186° |
| 2026-05-05 21:31 | 44.66946 | -3.95059 | 37044 ft | 480 kts | 186° |
| 2026-05-05 21:31 | 44.60296 | -3.95783 | 37041 ft | 479 kts | 186° |
| 2026-05-05 21:32 | 44.53648 | -3.96506 | 37041 ft | 479 kts | 186° |
| 2026-05-05 21:32 | 44.46996 | -3.97225 | 37038 ft | 479 kts | 186° |
| 2026-05-05 21:33 | 44.40391 | -3.97941 | 37033 ft | 479 kts | 186° |
| 2026-05-05 21:33 | 44.33739 | -3.98591 | 37033 ft | 480 kts | 183° |
| 2026-05-05 21:34 | 44.27055 | -3.98217 | 37040 ft | 481 kts | 178° |
| 2026-05-05 21:34 | 44.20425 | -3.97570 | 37041 ft | 482 kts | 178° |
| 2026-05-05 21:35 | 44.13739 | -3.96887 | 37042 ft | 482 kts | 178° |
| 2026-05-05 21:35 | 44.07046 | -3.96221 | 37042 ft | 482 kts | 178° |
| 2026-05-05 21:36 | 44.00366 | -3.95569 | 37048 ft | 482 kts | 178° |
| 2026-05-05 21:36 | 43.93672 | -3.94922 | 37044 ft | 482 kts | 178° |
| 2026-05-05 21:37 | 43.87022 | -3.94280 | 37047 ft | 482 kts | 178° |
| 2026-05-05 21:37 | 43.80335 | -3.93633 | 37050 ft | 482 kts | 178° |
| 2026-05-05 21:38 | 43.73639 | -3.92991 | 37049 ft | 482 kts | 178° |
| 2026-05-05 21:38 | 43.66958 | -3.92350 | 37043 ft | 481 kts | 178° |
| 2026-05-05 21:39 | 43.60316 | -3.91712 | 37040 ft | 481 kts | 178° |
| 2026-05-05 21:39 | 43.53648 | -3.91071 | 37048 ft | 481 kts | 178° |
| 2026-05-05 21:40 | 43.46971 | -3.90449 | 37039 ft | 480 kts | 180° |
| 2026-05-05 21:40 | 43.40331 | -3.90906 | 37047 ft | 477 kts | 188° |
| 2026-05-05 21:41 | 43.33736 | -3.91846 | 37047 ft | 476 kts | 189° |
| 2026-05-05 21:41 | 43.27202 | -3.92850 | 37042 ft | 476 kts | 189° |
| 2026-05-05 21:42 | 43.20623 | -3.93846 | 37045 ft | 475 kts | 189° |
| 2026-05-05 21:42 | 43.14046 | -3.94820 | 37043 ft | 475 kts | 189° |
| 2026-05-05 21:43 | 43.07476 | -3.95786 | 37044 ft | 474 kts | 189° |
| 2026-05-05 21:43 | 43.00962 | -3.96739 | 37043 ft | 474 kts | 189° |
| 2026-05-05 21:44 | 42.94408 | -3.97701 | 37041 ft | 473 kts | 190° |
| 2026-05-05 21:44 | 42.87866 | -3.98664 | 37049 ft | 473 kts | 190° |
| 2026-05-05 21:45 | 42.82436 | -3.99453 | 37047 ft | 472 kts | 190° |
| 2026-05-05 21:45 | 42.75906 | -4.00400 | 37041 ft | 472 kts | 190° |
| 2026-05-05 21:46 | 42.69368 | -4.01350 | 37049 ft | 473 kts | 191° |
| 2026-05-05 21:46 | 42.62826 | -4.02297 | 37043 ft | 472 kts | 191° |
| 2026-05-05 21:47 | 42.56339 | -4.03235 | 37045 ft | 472 kts | 191° |
| 2026-05-05 21:47 | 42.49815 | -4.04181 | 37043 ft | 471 kts | 191° |
| 2026-05-05 21:48 | 42.43300 | -4.05117 | 37047 ft | 471 kts | 191° |
| 2026-05-05 21:48 | 42.36780 | -4.06052 | 37043 ft | 471 kts | 191° |
| 2026-05-05 21:49 | 42.30270 | -4.06986 | 37048 ft | 470 kts | 191° |
| 2026-05-05 21:49 | 42.23812 | -4.07911 | 37048 ft | 470 kts | 191° |
| 2026-05-05 21:50 | 42.17313 | -4.08840 | 37049 ft | 469 kts | 191° |
| 2026-05-05 21:50 | 42.10816 | -4.09762 | 37046 ft | 469 kts | 191° |
| 2026-05-05 21:51 | 42.04329 | -4.10689 | 37041 ft | 469 kts | 191° |
| 2026-05-05 21:51 | 41.97863 | -4.11518 | 37042 ft | 470 kts | 190° |
| 2026-05-05 21:52 | 41.88084 | -4.12598 | 37043 ft | 470 kts | 190° |
| 2026-05-05 21:53 | 41.81566 | -4.13334 | 37038 ft | 470 kts | 190° |
| 2026-05-05 21:53 | 41.75045 | -4.14072 | 37033 ft | 470 kts | 190° |
| 2026-05-05 21:54 | 41.68528 | -4.14812 | 37032 ft | 470 kts | 190° |
| 2026-05-05 21:54 | 41.62063 | -4.15542 | 37033 ft | 469 kts | 190° |
| 2026-05-05 21:55 | 41.55563 | -4.16274 | 37036 ft | 469 kts | 190° |
| 2026-05-05 21:55 | 41.49062 | -4.17008 | 37033 ft | 468 kts | 190° |
| 2026-05-05 21:56 | 41.42570 | -4.17741 | 37041 ft | 468 kts | 190° |
| 2026-05-05 21:56 | 41.36128 | -4.18463 | 37026 ft | 468 kts | 190° |
| 2026-05-05 21:57 | 41.29644 | -4.19188 | 37026 ft | 467 kts | 190° |
| 2026-05-05 21:57 | 41.23158 | -4.19839 | 37020 ft | 469 kts | 188° |
| 2026-05-05 21:58 | 41.16646 | -4.20179 | 37017 ft | 468 kts | 188° |
| 2026-05-05 21:58 | 41.10197 | -4.20543 | 36931 ft | 462 kts | 188° |
| 2026-05-05 21:58 | 41.07001 | -4.20727 | 36227 ft | 459 kts | 188° |
| 2026-05-05 21:59 | 41.03790 | -4.20921 | 35131 ft | 465 kts | 189° |
| 2026-05-05 21:59 | 41.00537 | -4.21121 | 34006 ft | 471 kts | 189° |
| 2026-05-05 21:59 | 40.97253 | -4.21321 | 33097 ft | 475 kts | 189° |
| 2026-05-05 21:59 | 40.93930 | -4.21523 | 32557 ft | 480 kts | 189° |
| 2026-05-05 22:00 | 40.90581 | -4.21726 | 32172 ft | 483 kts | 189° |
| 2026-05-05 22:00 | 40.87232 | -4.21928 | 31803 ft | 483 kts | 189° |
| 2026-05-05 22:00 | 40.83866 | -4.22132 | 31429 ft | 483 kts | 189° |
| 2026-05-05 22:00 | 40.80548 | -4.22331 | 31055 ft | 484 kts | 189° |
| 2026-05-05 22:01 | 40.77183 | -4.22532 | 30681 ft | 485 kts | 189° |
| 2026-05-05 22:01 | 40.73813 | -4.22733 | 30304 ft | 485 kts | 189° |
| 2026-05-05 22:01 | 40.70447 | -4.22933 | 29929 ft | 483 kts | 189° |
| 2026-05-05 22:01 | 40.67099 | -4.23133 | 29541 ft | 480 kts | 189° |
| 2026-05-05 22:02 | 40.63770 | -4.23333 | 29178 ft | 478 kts | 189° |
| 2026-05-05 22:02 | 40.60456 | -4.23530 | 28803 ft | 475 kts | 189° |
| 2026-05-05 22:02 | 40.57166 | -4.23727 | 28430 ft | 472 kts | 189° |
| 2026-05-05 22:02 | 40.53922 | -4.23845 | 28051 ft | 475 kts | 185° |
| 2026-05-05 22:03 | 40.50635 | -4.23133 | 27684 ft | 487 kts | 169° |
| 2026-05-05 22:03 | 40.47449 | -4.21585 | 27305 ft | 489 kts | 164° |
| 2026-05-05 22:03 | 40.44300 | -4.19900 | 26890 ft | 487 kts | 164° |
| 2026-05-05 22:03 | 40.41167 | -4.18244 | 26359 ft | 484 kts | 165° |
| 2026-05-05 22:04 | 40.38057 | -4.16600 | 25842 ft | 483 kts | 163° |
| 2026-05-05 22:04 | 40.35142 | -4.14339 | 25308 ft | 494 kts | 147° |
| 2026-05-05 22:04 | 40.32720 | -4.11108 | 24791 ft | 502 kts | 131° |
| 2026-05-05 22:04 | 40.30981 | -4.07119 | 24258 ft | 508 kts | 115° |
| 2026-05-05 22:05 | 40.30039 | -4.02718 | 23749 ft | 509 kts | 102° |
| 2026-05-05 22:05 | 40.29405 | -3.98190 | 23215 ft | 505 kts | 103° |
| 2026-05-05 22:05 | 40.28631 | -3.93759 | 22691 ft | 494 kts | 106° |
| 2026-05-05 22:05 | 40.27743 | -3.89466 | 22161 ft | 482 kts | 108° |
| 2026-05-05 22:06 | 40.26798 | -3.85296 | 21646 ft | 484 kts | 109° |
| 2026-05-05 22:06 | 40.25775 | -3.81016 | 21303 ft | 498 kts | 110° |
| 2026-05-05 22:06 | 40.24699 | -3.76689 | 21269 ft | 501 kts | 111° |
| 2026-05-05 22:06 | 40.23252 | -3.72569 | 21269 ft | 498 kts | 123° |
| 2026-05-05 22:07 | 40.21431 | -3.68710 | 21269 ft | 497 kts | 128° |
| 2026-05-05 22:07 | 40.19404 | -3.65123 | 21268 ft | 496 kts | 133° |
| 2026-05-05 22:07 | 40.17203 | -3.61655 | 21263 ft | 497 kts | 134° |
| 2026-05-05 22:07 | 40.14963 | -3.58188 | 21264 ft | 502 kts | 134° |
| 2026-05-05 22:08 | 40.12704 | -3.54702 | 21257 ft | 502 kts | 134° |
| 2026-05-05 22:08 | 40.10447 | -3.51228 | 21257 ft | 502 kts | 134° |
| 2026-05-05 22:08 | 40.08253 | -3.47842 | 21099 ft | 477 kts | 134° |
| 2026-05-05 22:08 | 40.06204 | -3.44504 | 20623 ft | 465 kts | 131° |
| 2026-05-05 22:09 | 40.04334 | -3.41111 | 20073 ft | 457 kts | 128° |
| 2026-05-05 22:09 | 40.02582 | -3.37800 | 19518 ft | 429 kts | 128° |
| 2026-05-05 22:09 | 40.00949 | -3.34689 | 19008 ft | 404 kts | 128° |
| 2026-05-05 22:09 | 39.99545 | -3.31650 | 18370 ft | 390 kts | 117° |
| 2026-05-05 22:10 | 39.98733 | -3.28346 | 17730 ft | 378 kts | 104° |
| 2026-05-05 22:10 | 39.98223 | -3.25036 | 17071 ft | 366 kts | 102° |
| 2026-05-05 22:10 | 39.97759 | -3.21824 | 16418 ft | 355 kts | 102° |
| 2026-05-05 22:10 | 39.97312 | -3.18710 | 15709 ft | 346 kts | 102° |
| 2026-05-05 22:11 | 39.96871 | -3.15665 | 14964 ft | 339 kts | 102° |
| 2026-05-05 22:11 | 39.96638 | -3.12640 | 14335 ft | 330 kts | 89° |
| 2026-05-05 22:11 | 39.97040 | -3.09798 | 13947 ft | 312 kts | 68° |
| 2026-05-05 22:11 | 39.98119 | -3.07469 | 13554 ft | 291 kts | 44° |
| 2026-05-05 22:12 | 39.99657 | -3.05978 | 13179 ft | 271 kts | 20° |
| 2026-05-05 22:12 | 40.01401 | -3.05362 | 12797 ft | 251 kts | 359° |
| 2026-05-05 22:12 | 40.03066 | -3.05602 | 12404 ft | 234 kts | 337° |
| 2026-05-05 22:12 | 40.04431 | -3.06551 | 12037 ft | 222 kts | 318° |
| 2026-05-05 22:13 | 40.05634 | -3.07872 | 11688 ft | 238 kts | 315° |
| 2026-05-05 22:13 | 40.06939 | -3.09394 | 11322 ft | 261 kts | 316° |
| 2026-05-05 22:13 | 40.08318 | -3.10977 | 10953 ft | 266 kts | 316° |
| 2026-05-05 22:13 | 40.09710 | -3.12564 | 10583 ft | 265 kts | 317° |
| 2026-05-05 22:14 | 40.11097 | -3.14143 | 10205 ft | 264 kts | 317° |
| 2026-05-05 22:14 | 40.12476 | -3.15717 | 9828 ft | 262 kts | 317° |
| 2026-05-05 22:14 | 40.13830 | -3.17264 | 9457 ft | 261 kts | 318° |
| 2026-05-05 22:14 | 40.15195 | -3.18826 | 9083 ft | 260 kts | 318° |
| 2026-05-05 22:15 | 40.16553 | -3.20380 | 8708 ft | 259 kts | 318° |
| 2026-05-05 22:15 | 40.17903 | -3.21927 | 8340 ft | 257 kts | 318° |
| 2026-05-05 22:15 | 40.19246 | -3.23466 | 7961 ft | 256 kts | 319° |
| 2026-05-05 22:15 | 40.20577 | -3.24993 | 7584 ft | 254 kts | 319° |
| 2026-05-05 22:16 | 40.21904 | -3.26515 | 7206 ft | 252 kts | 319° |
| 2026-05-05 22:16 | 40.23195 | -3.27994 | 6835 ft | 249 kts | 319° |
| 2026-05-05 22:16 | 40.24491 | -3.29483 | 6458 ft | 247 kts | 319° |
| 2026-05-05 22:16 | 40.25765 | -3.30955 | 6195 ft | 240 kts | 319° |
| 2026-05-05 22:17 | 40.26967 | -3.32439 | 6200 ft | 237 kts | 316° |
| 2026-05-05 22:17 | 40.28137 | -3.33959 | 6061 ft | 235 kts | 318° |
| 2026-05-05 22:17 | 40.29365 | -3.35378 | 5945 ft | 231 kts | 320° |
| 2026-05-05 22:17 | 40.30521 | -3.36678 | 5734 ft | 207 kts | 321° |
| 2026-05-05 22:18 | 40.31567 | -3.37758 | 5722 ft | 176 kts | 324° |
| 2026-05-05 22:18 | 40.32486 | -3.38650 | 5641 ft | 153 kts | 322° |
| 2026-05-05 22:18 | 40.33329 | -3.39418 | 5450 ft | 144 kts | 323° |
| 2026-05-05 22:18 | 40.34150 | -3.40130 | 5196 ft | 150 kts | 323° |
| 2026-05-05 22:19 | 40.35066 | -3.40947 | 5020 ft | 167 kts | 321° |
| 2026-05-05 22:19 | 40.36006 | -3.41875 | 4817 ft | 169 kts | 318° |
| 2026-05-05 22:19 | 40.36921 | -3.42881 | 4554 ft | 173 kts | 317° |
| 2026-05-05 22:19 | 40.37822 | -3.43932 | 4238 ft | 174 kts | 317° |
| 2026-05-05 22:20 | 40.38760 | -3.44929 | 4078 ft | 175 kts | 323° |
| 2026-05-05 22:20 | 40.39715 | -3.45886 | 3938 ft | 167 kts | 323° |
| 2026-05-05 22:20 | 40.40624 | -3.46790 | 3738 ft | 163 kts | 326° |
| 2026-05-05 22:20 | 40.41570 | -3.47661 | 3415 ft | 167 kts | 326° |
| 2026-05-05 22:21 | 40.42487 | -3.48575 | 3212 ft | 165 kts | 322° |
| 2026-05-05 22:21 | 40.43337 | -3.49541 | 3097 ft | 166 kts | 319° |
| 2026-05-05 22:21 | 40.44255 | -3.50489 | 2761 ft | 166 kts | 322° |
| 2026-05-05 22:21 | 40.45145 | -3.51399 | 2505 ft | 157 kts | 322° |
| 2026-05-05 22:22 | 40.46000 | -3.52251 | 2301 ft | 155 kts | 324° |
| 2026-05-05 22:22 | 40.46853 | -3.53111 | 2042 ft | 153 kts | 322° |
| 2026-05-05 22:22 | 40.47684 | -3.53956 | 1950 ft | 150 kts | 322° |
| 2026-05-05 22:22 | 40.48432 | -3.54715 | 1946 ft | 127 kts | 322° |
| 2026-05-05 22:23 | 40.48963 | -3.55251 | 1958 ft | 98 kts | 316° |
| 2026-05-05 22:23 | 40.49282 | -3.55638 | 1968 ft | 19 kts | 328° |
| 2026-05-05 22:23 | 40.49327 | -3.55663 | 1973 ft | 18 kts | 334° |
| 2026-05-05 22:23 | 40.49408 | -3.55796 | 1971 ft | 19 kts | 280° |
| 2026-05-05 22:24 | 40.49413 | -3.55889 | 1968 ft | 0 kts | 271° |
| 2026-05-05 22:24 | 40.49413 | -3.55909 | 1968 ft | 5 kts | 271° |
| 2026-05-05 22:24 | 40.49415 | -3.55986 | 1966 ft | 11 kts | 271° |
| 2026-05-05 22:24 | 40.49415 | -3.56109 | 1965 ft | 16 kts | 269° |
| 2026-05-05 22:25 | 40.49388 | -3.56228 | 1973 ft | 10 kts | 219° |
| 2026-05-05 22:25 | 40.49329 | -3.56243 | 1968 ft | 5 kts | 176° |
| 2026-05-05 22:25 | 40.49323 | -3.56242 | 1970 ft | 2 kts | 176° |
| 2026-05-05 22:25 | 40.49295 | -3.56241 | 1968 ft | 4 kts | 181° |
| 2026-05-05 22:26 | 40.49274 | -3.56261 | 1972 ft | 5 kts | 225° |
| 2026-05-05 22:26 | 40.49270 | -3.56275 | 1972 ft | 0 kts | 262° |
| 2026-05-05 22:26 | 40.49270 | -3.56278 | 1974 ft | 2 kts | 270° |
| 2026-05-05 22:26 | 40.49271 | -3.56326 | 1974 ft | 6 kts | 270° |
| 2026-05-05 22:27 | 40.49271 | -3.56353 | 1973 ft | 0 kts | 270° |